Time;durP1;ratioP1;P1;durP2;ratioP2;P2;SDS_P1;SDS_P2;PMS_P1;PMS_P2;Temp;Humidity;BMP_temperature;BMP_pressure;BME280_temperature;BME280_humidity;BME280_pressure;Samples;Min_cycle;Max_cycle;Signal;HPM_P1;HPM_P2
2022/07/13 00:02:15;;;;;;;5.97;4.72;;;26.40;45.10;;;;;;4712089;57;21044;-31
2022/07/13 00:07:16;;;;;;;5.37;4.57;;;26.40;45.70;;;;;;4795550;57;21111;-29
2022/07/13 00:12:17;;;;;;;4.87;4.25;;;26.30;45.00;;;;;;4641637;57;21027;-31
2022/07/13 00:17:18;;;;;;;5.60;4.80;;;26.40;45.10;;;;;;4679427;57;21582;-32
2022/07/13 00:22:18;;;;;;;4.60;4.10;;;26.40;45.00;;;;;;4575177;57;21016;-34
2022/07/13 00:27:19;;;;;;;6.07;4.60;;;26.40;45.10;;;;;;4670876;57;21135;-33
2022/07/13 00:32:21;;;;;;;7.93;4.53;;;26.30;45.00;;;;;;4581031;57;21525;-31
2022/07/13 00:37:21;;;;;;;5.07;3.83;;;26.40;45.00;;;;;;4563580;61;21015;-32
2022/07/13 00:42:22;;;;;;;4.70;4.12;;;26.40;45.00;;;;;;4706603;57;21048;-32
2022/07/13 00:47:23;;;;;;;4.72;4.12;;;26.40;45.00;;;;;;4581953;57;21042;-33
2022/07/13 00:52:24;;;;;;;5.45;3.95;;;26.40;45.00;;;;;;4649125;57;21075;-33
2022/07/13 00:57:27;;;;;;;5.00;3.72;;;26.30;45.00;;;;;;4632994;57;21091;-34
2022/07/13 01:02:28;;;;;;;5.22;3.62;;;26.30;44.90;;;;;;4822599;57;21537;-30
2022/07/13 01:07:33;;;;;;;4.20;3.80;;;26.30;45.00;;;;;;4562949;61;21012;-31
2022/07/13 01:12:36;;;;;;;4.93;4.00;;;26.30;44.80;;;;;;4962645;57;21083;-29
2022/07/13 01:17:38;;;;;;;4.00;3.60;;;26.30;44.80;;;;;;4585661;57;21035;-31
2022/07/13 01:22:45;;;;;;;4.20;3.67;;;26.30;44.80;;;;;;4589513;57;21029;-31
2022/07/13 01:27:48;;;;;;;4.53;3.40;;;26.30;44.80;;;;;;4929127;57;21039;-33
2022/07/13 01:32:51;;;;;;;4.85;3.50;;;26.30;44.80;;;;;;4587170;57;21557;-30
2022/07/13 01:37:53;;;;;;;3.92;3.50;;;26.30;44.70;;;;;;4587086;57;21083;-31
2022/07/13 01:42:54;;;;;;;3.78;3.42;;;26.30;44.90;;;;;;4724509;57;21023;-32
2022/07/13 01:47:56;;;;;;;4.47;3.53;;;26.30;44.80;;;;;;4762531;57;21059;-34
2022/07/13 01:52:57;;;;;;;3.62;3.17;;;26.30;44.80;;;;;;4563325;61;21510;-34
2022/07/13 01:57:59;;;;;;;3.17;2.87;;;26.30;44.80;;;;;;4634167;57;21092;-32
2022/07/13 02:03:00;;;;;;;4.12;3.22;;;26.30;44.70;;;;;;4582596;57;21079;-32
2022/07/13 02:08:01;;;;;;;4.03;3.33;;;26.20;44.60;;;;;;4598741;57;21047;-34
2022/07/13 02:13:07;;;;;;;4.05;3.10;;;26.30;44.70;;;;;;4861695;57;21163;-30
2022/07/13 02:18:08;;;;;;;3.05;2.78;;;26.30;44.60;;;;;;4614558;57;21079;-32
2022/07/13 02:23:09;;;;;;;4.87;2.80;;;26.30;44.70;;;;;;4693840;57;21010;-30
2022/07/13 02:28:10;;;;;;;3.40;2.80;;;26.30;44.60;;;;;;4563407;58;21086;-31
2022/07/13 02:33:11;;;;;;;3.90;3.28;;;26.30;44.60;;;;;;4878291;57;21473;-30
2022/07/13 02:38:12;;;;;;;3.50;2.75;;;26.30;44.50;;;;;;4593426;57;21082;-29
2022/07/13 02:43:12;;;;;;;3.87;3.08;;;26.20;44.40;;;;;;4563610;61;21023;-31
2022/07/13 02:48:13;;;;;;;3.67;3.28;;;26.30;44.50;;;;;;4638846;57;21047;-32
2022/07/13 02:53:14;;;;;;;3.42;3.08;;;26.20;44.50;;;;;;4636198;57;21498;-33
2022/07/13 02:58:15;;;;;;;3.28;3.00;;;26.20;44.50;;;;;;4663109;57;21027;-32
2022/07/13 03:03:16;;;;;;;3.40;2.80;;;26.20;44.30;;;;;;4646434;57;21596;-31
2022/07/13 03:08:17;;;;;;;3.78;2.83;;;26.20;44.40;;;;;;4586810;57;21114;-33
2022/07/13 03:13:18;;;;;;;3.55;3.08;;;26.20;44.50;;;;;;4563171;61;21008;-33
2022/07/13 03:18:19;;;;;;;5.47;2.85;;;26.20;44.50;;;;;;4864976;57;21136;-33
2022/07/13 03:23:19;;;;;;;3.03;2.70;;;26.20;44.50;;;;;;4596688;57;21078;-31
2022/07/13 03:28:20;;;;;;;4.32;2.87;;;26.20;44.50;;;;;;4639955;57;21629;-30
2022/07/13 03:33:21;;;;;;;3.15;2.65;;;26.20;44.50;;;;;;4832506;57;21557;-33
2022/07/13 03:38:22;;;;;;;3.60;2.80;;;26.20;44.50;;;;;;4691754;57;21034;-30
2022/07/13 03:43:23;;;;;;;4.32;2.85;;;26.20;44.50;;;;;;4948810;57;21027;-29
2022/07/13 03:48:24;;;;;;;3.85;2.90;;;26.20;44.40;;;;;;4565397;57;21095;-31
2022/07/13 03:53:24;;;;;;;3.53;2.65;;;26.20;44.30;;;;;;4603950;57;21071;-30
2022/07/13 03:58:25;;;;;;;4.35;2.92;;;26.10;44.50;;;;;;4677175;57;21032;-33
2022/07/13 04:03:26;;;;;;;2.90;2.60;;;26.20;44.50;;;;;;4598867;57;21478;-30
2022/07/13 04:08:27;;;;;;;5.55;2.85;;;26.10;44.40;;;;;;4619601;57;21561;-28
2022/07/13 04:13:28;;;;;;;3.12;2.83;;;26.20;44.30;;;;;;4722087;57;21087;-32
2022/07/13 04:18:28;;;;;;;5.00;3.12;;;26.10;44.20;;;;;;4612986;57;21043;-28
2022/07/13 04:23:30;;;;;;;4.30;2.70;;;26.10;44.20;;;;;;4750680;57;21048;-32
2022/07/13 04:28:31;;;;;;;4.05;2.85;;;26.10;43.90;;;;;;4563059;57;21048;-31
2022/07/13 04:33:32;;;;;;;5.80;2.95;;;26.10;43.90;;;;;;4701312;57;21035;-31
2022/07/13 04:38:32;;;;;;;4.30;2.80;;;26.10;43.80;;;;;;4651232;57;21489;-29
2022/07/13 04:43:33;;;;;;;3.60;3.03;;;26.10;43.80;;;;;;4700411;57;21032;-31
2022/07/13 04:48:34;;;;;;;3.87;3.15;;;26.10;43.70;;;;;;4812566;57;22238;-35
2022/07/13 04:53:35;;;;;;;4.62;2.90;;;26.10;43.70;;;;;;4562915;61;21095;-31
2022/07/13 04:58:36;;;;;;;5.32;3.17;;;26.00;43.70;;;;;;4693009;57;21092;-31
2022/07/13 05:03:37;;;;;;;4.40;3.35;;;26.10;43.60;;;;;;4812290;57;21030;-31
2022/07/13 05:08:37;;;;;;;5.93;3.30;;;26.00;43.70;;;;;;4562710;61;21039;-33
2022/07/13 05:13:38;;;;;;;7.05;3.65;;;26.00;43.50;;;;;;4563781;57;21532;-33
2022/07/13 05:18:39;;;;;;;4.87;3.22;;;26.00;43.50;;;;;;4642551;57;21513;-31
2022/07/13 05:23:40;;;;;;;6.40;3.62;;;26.00;43.50;;;;;;4714741;57;21605;-31
2022/07/13 05:28:42;;;;;;;5.35;3.97;;;26.00;43.60;;;;;;4713430;57;21158;-30
2022/07/13 05:33:42;;;;;;;5.85;4.40;;;26.00;43.60;;;;;;4633611;57;21047;-31
2022/07/13 05:38:43;;;;;;;6.45;4.60;;;26.00;43.70;;;;;;4752466;57;21039;-29
2022/07/13 05:43:44;;;;;;;5.80;4.57;;;26.00;43.70;;;;;;4588086;57;21031;-32
2022/07/13 05:48:45;;;;;;;7.62;5.57;;;26.00;43.70;;;;;;4722085;57;21588;-30
2022/07/13 05:53:46;;;;;;;6.68;4.78;;;26.00;43.70;;;;;;4602110;57;21031;-30
2022/07/13 05:58:47;;;;;;;9.75;5.60;;;26.00;43.70;;;;;;4580307;57;21497;-30
2022/07/13 06:03:48;;;;;;;9.02;6.12;;;26.00;43.80;;;;;;4563541;58;21027;-30
2022/07/13 06:08:48;;;;;;;8.23;5.50;;;26.00;43.90;;;;;;4716734;57;21087;-30
2022/07/13 06:13:49;;;;;;;9.07;5.37;;;26.00;44.00;;;;;;4712484;57;21076;-30
2022/07/13 06:18:50;;;;;;;8.32;5.87;;;26.00;44.10;;;;;;4563365;61;21497;-29
2022/07/13 06:23:51;;;;;;;9.00;5.72;;;26.00;44.30;;;;;;4568233;57;21637;-31
2022/07/13 06:28:51;;;;;;;11.40;6.85;;;26.00;44.20;;;;;;4686261;57;21034;-31
2022/07/13 06:33:52;;;;;;;11.10;6.10;;;26.00;44.20;;;;;;4563270;61;21016;-29
2022/07/13 06:38:53;;;;;;;10.63;6.28;;;26.00;44.30;;;;;;4600506;57;21573;-33
2022/07/13 06:43:54;;;;;;;10.40;7.07;;;26.00;44.40;;;;;;4563612;57;21023;-31
2022/07/13 06:48:55;;;;;;;11.80;7.20;;;26.00;44.40;;;;;;4662268;57;21506;-32
2022/07/13 06:53:56;;;;;;;11.77;7.85;;;26.00;44.60;;;;;;4631626;57;21011;-30
2022/07/13 06:58:57;;;;;;;23.15;14.50;;;26.00;44.50;;;;;;4560625;61;21080;-25
2022/07/13 07:03:58;;;;;;;23.73;14.63;;;25.90;44.30;;;;;;4658729;57;21530;-29
2022/07/13 07:08:58;;;;;;;21.15;14.20;;;25.80;44.60;;;;;;4676757;57;21087;-28
2022/07/13 07:13:59;;;;;;;22.52;12.37;;;25.70;44.80;;;;;;4563132;61;21019;-28
2022/07/13 07:19:00;;;;;;;20.20;13.18;;;25.70;44.70;;;;;;4579229;57;21023;-25
2022/07/13 07:24:01;;;;;;;24.55;17.33;;;25.70;44.70;;;;;;4593765;57;21517;-29
2022/07/13 07:29:02;;;;;;;29.08;18.58;;;25.70;45.70;;;;;;4606992;57;21039;-26
2022/07/13 07:34:03;;;;;;;31.02;19.75;;;25.70;45.10;;;;;;4656652;57;21205;-27
2022/07/13 07:39:04;;;;;;;29.70;18.77;;;25.70;45.30;;;;;;4634328;57;21085;-26
2022/07/13 07:44:04;;;;;;;20.17;13.02;;;25.70;45.30;;;;;;4602855;57;21087;-26
2022/07/13 07:49:05;;;;;;;28.60;18.15;;;25.70;45.30;;;;;;4620407;57;21099;-29
2022/07/13 07:54:06;;;;;;;24.12;16.95;;;25.70;45.50;;;;;;4601393;57;21020;-28
2022/07/13 07:59:07;;;;;;;29.52;19.02;;;25.80;45.60;;;;;;4608411;57;21087;-29
2022/07/13 08:04:08;;;;;;;41.83;25.25;;;25.90;45.80;;;;;;4653612;57;21019;-27
2022/07/13 08:09:09;;;;;;;34.38;23.83;;;25.80;45.70;;;;;;4592922;57;21136;-24
2022/07/13 08:14:10;;;;;;;31.65;20.67;;;25.80;45.40;;;;;;4631182;57;21502;-27
2022/07/13 08:19:11;;;;;;;27.33;18.02;;;25.80;45.60;;;;;;4578483;57;21696;-28
2022/07/13 08:24:12;;;;;;;37.65;26.15;;;25.80;45.50;;;;;;4606944;57;21115;-29
2022/07/13 08:29:16;;;;;;;43.55;27.15;;;25.90;45.70;;;;;;4799242;57;21162;-24
2022/07/13 08:39:36;;;;;;;40.55;21.98;;;25.90;45.40;;;;;;4665733;57;21054;-24
2022/07/13 08:44:37;;;;;;;38.08;21.98;;;25.90;45.30;;;;;;4611723;57;21034;-24
2022/07/13 08:49:37;;;;;;;33.38;20.27;;;26.00;45.60;;;;;;4562854;61;21510;-25
2022/07/13 08:54:38;;;;;;;33.47;21.52;;;26.00;45.40;;;;;;4563117;61;21083;-26
2022/07/13 08:59:39;;;;;;;32.50;20.48;;;26.00;45.20;;;;;;4611401;57;21094;-23
2022/07/13 09:04:40;;;;;;;27.87;19.23;;;26.00;45.10;;;;;;4622210;57;21502;-30
2022/07/13 09:09:42;;;;;;;32.42;21.52;;;26.10;44.40;;;;;;4651224;57;21542;-27
2022/07/13 09:14:57;;;;;;;31.20;23.30;;;26.10;44.30;;;;;;4581223;57;21111;-26
2022/07/13 09:21:51;;;;;;;33.63;27.58;;;26.10;43.90;;;;;;4562773;59;21035;-27
2022/07/13 09:26:52;;;;;;;37.17;26.62;;;26.10;43.30;;;;;;4767889;57;21605;-26
2022/07/13 09:31:58;;;;;;;34.58;28.65;;;26.20;43.70;;;;;;4724342;57;21545;-25
2022/07/13 09:37:09;;;;;;;42.75;32.08;;;26.20;43.60;;;;;;4563156;61;21517;-26
2022/07/13 09:42:10;;;;;;;40.35;30.20;;;26.20;43.80;;;;;;4874973;57;20995;-27
2022/07/13 09:47:12;;;;;;;43.85;28.02;;;26.20;43.50;;;;;;4682909;57;21099;-26
2022/07/13 09:52:18;;;;;;;34.72;25.45;;;26.20;44.20;;;;;;4563408;57;22225;-26
2022/07/13 09:57:22;;;;;;;32.63;25.10;;;26.30;44.20;;;;;;4605446;57;21102;-26
2022/07/13 10:02:24;;;;;;;31.17;23.48;;;26.40;44.20;;;;;;4662650;57;21107;-26
2022/07/13 10:07:25;;;;;;;31.40;22.05;;;26.30;44.10;;;;;;4691142;57;21107;-26
2022/07/13 10:12:27;;;;;;;31.15;21.02;;;26.30;44.10;;;;;;4579324;57;21101;-25
2022/07/13 10:17:28;;;;;;;23.38;18.55;;;26.30;43.80;;;;;;4563483;61;21100;-27
2022/07/13 10:22:51;;;;;;;20.80;15.13;;;26.30;42.50;;;;;;4642744;57;21103;-26
2022/07/13 10:28:05;;;;;;;15.60;12.85;;;26.30;41.60;;;;;;4646762;57;21099;-25
2022/07/13 10:33:24;;;;;;;17.10;12.02;;;26.30;40.00;;;;;;4730792;57;20999;-26
2022/07/13 10:38:29;;;;;;;14.73;11.00;;;26.20;39.20;;;;;;4563205;61;21461;-28
2022/07/13 10:43:30;;;;;;;13.38;10.90;;;26.30;39.70;;;;;;4729612;57;21537;-27
2022/07/13 10:48:42;;;;;;;16.55;10.25;;;26.30;38.60;;;;;;4562503;58;21032;-26
2022/07/13 10:54:04;;;;;;;19.52;10.70;;;26.30;38.80;;;;;;4629426;57;21518;-25
2022/07/13 10:59:07;;;;;;;15.98;13.00;;;26.30;38.80;;;;;;4675586;57;21059;-22
2022/07/13 11:04:13;;;;;;;18.40;14.07;;;26.30;38.80;;;;;;4562919;58;21466;-24
2022/07/13 11:09:18;;;;;;;22.15;15.05;;;26.30;38.50;;;;;;4562862;61;21031;-27
2022/07/13 11:21:10;;;;;;;23.20;14.82;;;26.30;38.30;;;;;;4650511;57;21019;-26
2022/07/13 11:28:15;;;;;;;18.95;14.00;;;26.40;38.20;;;;;;4681504;57;21620;-26
2022/07/13 11:33:16;;;;;;;19.37;13.98;;;26.40;38.30;;;;;;4675954;57;21071;-25
2022/07/13 11:38:19;;;;;;;18.10;13.68;;;26.40;38.10;;;;;;4644562;57;21168;-26
2022/07/13 11:43:20;;;;;;;20.10;15.50;;;26.40;38.00;;;;;;4598764;57;21548;-27
2022/07/13 11:48:24;;;;;;;19.77;15.63;;;26.40;37.90;;;;;;4604076;57;21486;-26
2022/07/13 11:53:27;;;;;;;21.45;14.82;;;26.40;37.90;;;;;;4696226;57;21513;-27
2022/07/13 11:58:31;;;;;;;22.65;17.40;;;26.40;38.40;;;;;;4562765;61;21120;-26
2022/07/13 12:03:34;;;;;;;22.83;17.37;;;26.40;38.90;;;;;;4617219;57;21624;-24
2022/07/13 12:08:37;;;;;;;19.80;15.90;;;26.40;38.70;;;;;;4581449;57;21113;-28
2022/07/13 12:13:39;;;;;;;20.02;16.62;;;26.40;38.90;;;;;;4694263;57;21088;-23
2022/07/13 12:19:03;;;;;;;19.95;16.98;;;26.40;39.10;;;;;;4567470;57;21027;-26
2022/07/13 12:24:05;;;;;;;21.37;17.25;;;26.40;39.40;;;;;;4718525;57;21518;-26
2022/07/13 12:29:06;;;;;;;21.42;17.35;;;26.40;39.50;;;;;;4567568;57;21573;-27
2022/07/13 12:34:07;;;;;;;22.75;18.17;;;26.40;39.70;;;;;;4562699;61;21020;-26
2022/07/13 12:39:08;;;;;;;25.90;18.75;;;26.50;40.00;;;;;;4657402;57;21028;-26
2022/07/13 12:44:10;;;;;;;26.67;17.23;;;26.50;39.50;;;;;;4609958;57;21019;-27
2022/07/13 12:49:11;;;;;;;23.42;16.02;;;26.50;40.20;;;;;;4667480;57;21533;-26
2022/07/13 12:54:13;;;;;;;24.10;15.23;;;26.50;40.00;;;;;;4590900;57;21147;-24
2022/07/13 12:59:18;;;;;;;21.98;14.87;;;26.50;39.90;;;;;;4604121;57;21011;-27
2022/07/13 13:04:18;;;;;;;17.77;13.70;;;26.50;39.50;;;;;;4565250;57;21051;-31
2022/07/13 13:09:20;;;;;;;15.13;12.07;;;26.50;39.50;;;;;;4771417;56;35612;-25
2022/07/13 13:14:20;;;;;;;18.85;15.00;;;26.60;39.70;;;;;;4614722;60;21558;-33
2022/07/13 13:19:21;;;;;;;24.58;18.30;;;26.60;39.80;;;;;;4615117;57;21008;-33
2022/07/13 13:24:22;;;;;;;23.42;17.60;;;26.60;39.40;;;;;;4743395;56;21040;-28
2022/07/13 13:34:42;;;;;;;31.80;23.90;;;26.70;39.60;;;;;;4614786;56;21092;-28
2022/07/13 13:39:43;;;;;;;26.77;21.92;;;26.70;39.30;;;;;;4706562;56;21073;-27
2022/07/13 13:44:44;;;;;;;27.87;22.08;;;26.70;39.40;;;;;;4613253;56;21056;-25
2022/07/13 13:49:45;;;;;;;29.63;22.33;;;26.70;39.50;;;;;;4621353;56;21025;-28
2022/07/13 13:54:45;;;;;;;30.17;21.80;;;26.70;39.70;;;;;;4614843;56;21565;-25
2022/07/13 13:59:46;;;;;;;27.08;22.05;;;26.70;39.70;;;;;;4614895;56;21095;-24
2022/07/13 14:04:47;;;;;;;26.35;20.35;;;26.70;40.00;;;;;;4830866;56;21108;-23
2022/07/13 14:09:48;;;;;;;24.15;19.25;;;26.70;40.00;;;;;;4636227;56;21097;-25
2022/07/13 14:14:49;;;;;;;23.87;16.58;;;26.70;39.90;;;;;;4640062;56;21048;-26
2022/07/13 14:19:50;;;;;;;20.75;16.40;;;26.70;40.10;;;;;;4617182;56;21506;-27
2022/07/13 14:24:56;;;;;;;21.85;17.95;;;26.70;40.10;;;;;;4783701;56;21318;-28
2022/07/13 14:29:57;;;;;;;21.90;17.60;;;26.70;40.10;;;;;;4713331;56;21483;-26
2022/07/13 14:34:57;;;;;;;22.08;17.25;;;26.70;40.20;;;;;;4698086;56;21076;-27
2022/07/13 14:39:58;;;;;;;22.58;19.37;;;26.70;40.30;;;;;;4696743;56;21020;-26
2022/07/13 14:44:59;;;;;;;21.33;17.37;;;26.70;40.40;;;;;;4649358;56;21016;-30
2022/07/13 14:50:00;;;;;;;23.85;17.40;;;26.70;40.20;;;;;;4715762;56;21032;-29
2022/07/13 14:55:01;;;;;;;34.33;22.15;;;26.70;40.20;;;;;;4614847;60;21020;-27
2022/07/13 15:00:02;;;;;;;35.22;24.05;;;26.70;40.10;;;;;;4645807;56;21061;-34
2022/07/13 15:05:09;;;;;;;33.63;22.58;;;26.70;40.10;;;;;;4766326;56;21610;-33
2022/07/13 15:10:12;;;;;;;30.05;21.45;;;26.70;40.20;;;;;;4803277;56;21538;-30
2022/07/13 15:15:13;;;;;;;29.75;21.27;;;26.70;40.30;;;;;;4856601;56;21163;-30
2022/07/13 15:20:14;;;;;;;27.65;20.70;;;26.60;40.40;;;;;;4712758;56;21020;-27
2022/07/13 15:25:15;;;;;;;28.65;20.40;;;26.60;40.60;;;;;;4667540;56;21044;-28
2022/07/13 15:30:16;;;;;;;27.42;20.95;;;26.60;40.70;;;;;;4729146;56;21028;-27
2022/07/13 15:35:16;;;;;;;26.62;19.40;;;26.60;40.80;;;;;;4773912;56;21530;-30
2022/07/13 15:40:17;;;;;;;25.40;18.62;;;26.60;40.90;;;;;;4804728;56;21060;-23
2022/07/13 15:45:18;;;;;;;26.58;18.85;;;26.50;40.90;;;;;;4635516;56;21502;-24
2022/07/13 15:50:19;;;;;;;23.58;18.10;;;26.60;41.20;;;;;;4648509;56;21511;-35
2022/07/13 15:55:20;;;;;;;24.12;17.90;;;26.50;41.10;;;;;;4976881;56;21071;-31
2022/07/13 16:00:21;;;;;;;21.85;17.90;;;26.50;41.30;;;;;;4631799;56;21483;-27
2022/07/13 16:05:22;;;;;;;20.80;17.30;;;26.50;41.40;;;;;;4791411;56;21578;-30
2022/07/13 16:10:23;;;;;;;19.95;16.77;;;26.50;41.60;;;;;;4631946;56;21084;-30
2022/07/13 16:15:23;;;;;;;20.35;17.33;;;26.50;41.60;;;;;;4718797;56;21028;-26
2022/07/13 16:20:25;;;;;;;18.67;15.90;;;26.50;41.60;;;;;;4677526;56;21024;-30
2022/07/13 16:25:26;;;;;;;20.15;16.25;;;26.50;41.70;;;;;;4714516;56;21554;-33
2022/07/13 16:30:27;;;;;;;21.05;17.42;;;26.50;41.70;;;;;;4629078;56;21076;-29
2022/07/13 16:35:28;;;;;;;19.90;16.80;;;26.50;41.80;;;;;;4927844;56;21649;-26
2022/07/13 16:40:29;;;;;;;19.95;16.23;;;26.50;41.80;;;;;;4695362;56;21141;-24
2022/07/13 16:45:30;;;;;;;19.60;15.70;;;26.50;42.00;;;;;;4620064;56;21048;-30
2022/07/13 16:50:32;;;;;;;19.05;16.10;;;26.50;42.00;;;;;;4736968;56;21550;-27
2022/07/13 16:55:34;;;;;;;17.40;15.52;;;26.50;42.00;;;;;;4796310;56;21020;-30
2022/07/13 17:00:35;;;;;;;18.27;16.08;;;26.50;42.10;;;;;;4717184;56;21059;-26
2022/07/13 17:05:35;;;;;;;18.12;15.75;;;26.50;42.20;;;;;;4770760;56;21148;-27
2022/07/13 17:10:36;;;;;;;19.52;15.93;;;26.40;42.10;;;;;;4684490;56;21072;-34
2022/07/13 17:15:37;;;;;;;17.17;14.90;;;26.50;42.20;;;;;;4723796;56;21527;-29
2022/07/13 17:20:38;;;;;;;17.92;15.18;;;26.40;42.30;;;;;;4711719;56;21083;-22
2022/07/13 17:25:39;;;;;;;16.23;14.20;;;26.40;42.30;;;;;;4739977;56;21060;-29
2022/07/13 17:30:40;;;;;;;16.65;14.82;;;26.40;42.40;;;;;;4704215;56;21088;-28
2022/07/13 17:35:41;;;;;;;17.27;14.63;;;26.50;42.60;;;;;;4615022;57;21004;-23
2022/07/13 17:40:42;;;;;;;15.68;14.00;;;26.50;42.60;;;;;;4626635;56;21093;-30
2022/07/13 17:45:43;;;;;;;16.37;13.93;;;26.40;42.50;;;;;;4614993;60;21012;-29
2022/07/13 17:50:43;;;;;;;15.65;13.95;;;26.40;42.50;;;;;;4660993;56;21021;-29
2022/07/13 17:55:44;;;;;;;16.48;14.77;;;26.40;42.60;;;;;;4641644;56;21021;-27
2022/07/13 18:00:45;;;;;;;17.30;13.93;;;26.50;42.80;;;;;;4614905;60;21004;-25
2022/07/13 18:05:46;;;;;;;15.30;13.70;;;26.50;42.70;;;;;;4615038;56;21016;-27
2022/07/13 18:10:47;;;;;;;15.82;14.20;;;26.40;42.70;;;;;;4649163;56;21467;-27
2022/07/13 18:15:47;;;;;;;15.80;14.10;;;26.40;42.70;;;;;;4804294;56;21056;-28
2022/07/13 18:20:48;;;;;;;14.45;12.93;;;26.40;42.80;;;;;;4811566;56;21007;-27
2022/07/13 18:25:49;;;;;;;14.98;13.13;;;26.40;42.90;;;;;;4635065;56;21534;-27
2022/07/13 18:30:51;;;;;;;14.25;12.75;;;26.50;42.90;;;;;;4637935;56;21047;-27
2022/07/13 18:35:51;;;;;;;15.25;13.65;;;26.40;42.90;;;;;;4843888;56;21638;-26
2022/07/13 18:40:52;;;;;;;14.98;13.38;;;26.40;43.00;;;;;;4705320;56;21092;-27
2022/07/13 18:45:53;;;;;;;14.20;12.70;;;26.40;42.90;;;;;;4615108;60;21017;-25
2022/07/13 18:50:54;;;;;;;14.65;13.07;;;26.40;42.90;;;;;;4614357;60;21522;-28
2022/07/13 18:55:56;;;;;;;15.68;13.82;;;26.40;42.80;;;;;;4746641;56;21543;-25
2022/07/13 19:00:57;;;;;;;15.77;13.20;;;26.40;43.10;;;;;;4786064;56;21478;-23
2022/07/13 19:05:58;;;;;;;14.40;12.90;;;26.40;43.10;;;;;;4747753;56;21057;-27
2022/07/13 19:10:58;;;;;;;14.65;13.13;;;26.40;43.10;;;;;;4614370;60;21092;-28
2022/07/13 19:16:00;;;;;;;15.02;12.40;;;26.40;43.10;;;;;;4614876;56;21028;-33
2022/07/13 19:21:00;;;;;;;14.02;12.57;;;26.40;43.10;;;;;;4615390;60;21077;-28
2022/07/13 19:31:21;;;;;;;13.40;12.00;;;26.40;43.20;;;;;;4844991;56;21041;-25
2022/07/13 19:36:21;;;;;;;13.62;12.23;;;26.40;43.20;;;;;;4676135;56;21598;-25
2022/07/13 19:41:22;;;;;;;15.50;12.82;;;26.40;43.30;;;;;;4615356;60;21021;-28
2022/07/13 19:46:23;;;;;;;13.13;11.50;;;26.40;43.30;;;;;;4730964;56;21020;-24
2022/07/13 19:51:30;;;;;;;13.40;11.98;;;26.40;43.40;;;;;;4727446;56;21028;-27
2022/07/13 19:56:32;;;;;;;15.95;12.15;;;26.40;43.40;;;;;;4813530;56;21502;-25
2022/07/13 20:01:33;;;;;;;14.32;12.52;;;26.40;43.50;;;;;;4751988;56;21621;-29
2022/07/13 20:06:34;;;;;;;15.13;12.95;;;26.40;43.50;;;;;;4870596;56;21029;-27
2022/07/13 20:11:35;;;;;;;17.35;13.15;;;26.40;43.50;;;;;;4745736;56;21097;-27
2022/07/13 20:16:36;;;;;;;18.83;14.10;;;26.40;43.60;;;;;;4761031;56;21482;-24
2022/07/13 20:21:37;;;;;;;16.12;13.55;;;26.40;43.60;;;;;;4850517;56;21570;-26
2022/07/13 20:26:41;;;;;;;15.95;13.25;;;26.40;43.80;;;;;;4698666;56;21036;-29
2022/07/13 20:31:50;;;;;;;18.17;14.52;;;26.40;43.80;;;;;;4842379;56;21558;-25
2022/07/13 20:36:51;;;;;;;18.15;13.55;;;26.40;44.40;;;;;;4841083;56;21088;-29
2022/07/13 20:41:52;;;;;;;17.52;13.68;;;26.40;43.70;;;;;;4958103;56;21020;-27
2022/07/13 20:46:54;;;;;;;16.52;13.57;;;26.40;43.80;;;;;;4704529;56;21161;-26
2022/07/13 20:51:55;;;;;;;17.60;13.38;;;26.40;43.90;;;;;;4615268;60;21582;-28
2022/07/13 20:56:55;;;;;;;17.15;13.27;;;26.40;43.80;;;;;;4870772;56;21535;-27
2022/07/13 21:01:57;;;;;;;15.38;12.32;;;26.40;43.90;;;;;;4710372;56;21087;-29
2022/07/13 21:06:58;;;;;;;14.20;12.05;;;26.40;43.90;;;;;;4812612;56;21479;-26
2022/07/13 21:11:59;;;;;;;14.77;12.50;;;26.40;44.10;;;;;;4644731;56;21077;-27
2022/07/13 21:17:00;;;;;;;15.27;12.18;;;26.40;44.00;;;;;;5027058;56;21040;-29
2022/07/13 21:22:00;;;;;;;14.35;11.23;;;26.40;44.00;;;;;;4708396;56;21498;-28
2022/07/13 21:27:01;;;;;;;12.40;11.00;;;26.40;44.00;;;;;;4811804;56;21068;-27
2022/07/13 21:32:03;;;;;;;11.95;10.70;;;26.40;44.00;;;;;;4768790;56;21574;-25
2022/07/13 21:37:03;;;;;;;12.63;11.00;;;26.40;44.10;;;;;;4840993;56;21514;-27
2022/07/13 21:42:04;;;;;;;12.50;10.55;;;26.40;44.40;;;;;;4615266;56;21060;-28
2022/07/13 21:47:05;;;;;;;12.85;10.82;;;26.40;44.10;;;;;;4654699;56;21028;-28
2022/07/13 21:52:06;;;;;;;13.62;10.27;;;26.40;44.30;;;;;;4745365;56;21032;-34
2022/07/13 21:57:07;;;;;;;13.20;11.02;;;26.40;44.30;;;;;;4614913;60;21021;-30
2022/07/13 22:02:08;;;;;;;11.45;9.48;;;26.40;44.40;;;;;;4918049;56;21128;-25
2022/07/13 22:07:23;;;;;;;10.63;9.52;;;26.30;44.20;;;;;;4649879;56;21514;-27
2022/07/13 22:13:01;;;;;;;11.43;10.10;;;26.40;44.80;;;;;;4615597;56;21483;-28
2022/07/13 22:18:41;;;;;;;10.18;9.13;;;26.30;44.30;;;;;;4704078;56;21032;-31
2022/07/13 22:24:19;;;;;;;11.98;10.27;;;26.30;44.30;;;;;;4889639;56;21531;-30
2022/07/13 22:29:57;;;;;;;11.57;9.40;;;26.30;44.40;;;;;;4739804;56;21549;-26
2022/07/13 22:35:35;;;;;;;10.00;8.75;;;26.30;44.50;;;;;;4692595;56;21049;-28
2022/07/13 22:41:13;;;;;;;11.35;9.40;;;26.30;44.50;;;;;;4841353;56;21036;-28
2022/07/13 22:46:51;;;;;;;10.40;9.30;;;26.30;44.50;;;;;;4660678;56;21043;-36
2022/07/13 22:52:29;;;;;;;10.35;8.68;;;26.30;44.70;;;;;;4614628;60;21112;-33
2022/07/13 22:58:08;;;;;;;10.85;9.20;;;26.30;44.60;;;;;;4724711;56;21108;-27
2022/07/13 23:03:47;;;;;;;9.70;8.70;;;26.30;44.70;;;;;;4848084;56;21503;-31
2022/07/13 23:09:25;;;;;;;8.95;8.07;;;26.30;44.80;;;;;;4709587;56;21128;-27
2022/07/13 23:15:03;;;;;;;10.40;9.13;;;26.30;44.80;;;;;;4615550;57;21108;-28
2022/07/13 23:20:41;;;;;;;10.52;8.88;;;26.30;44.80;;;;;;4615637;57;21032;-30
2022/07/13 23:26:19;;;;;;;9.43;8.43;;;26.30;44.70;;;;;;4935701;56;21108;-29
2022/07/13 23:32:17;;;;;;;9.10;8.15;;;26.30;44.60;;;;;;4677076;56;21491;-32
2022/07/13 23:37:18;;;;;;;9.77;8.05;;;26.30;44.70;;;;;;4696690;56;21053;-27
2022/07/13 23:42:20;;;;;;;10.57;7.57;;;26.30;44.80;;;;;;4875254;56;21020;-33
2022/07/13 23:47:21;;;;;;;8.73;7.82;;;26.30;44.80;;;;;;4890677;56;21585;-26
2022/07/13 23:52:22;;;;;;;9.40;7.97;;;26.30;44.80;;;;;;4736168;56;21097;-28
2022/07/13 23:57:23;;;;;;;9.65;7.47;;;26.30;44.80;;;;;;4616300;56;20989;-25
